Time;durP1;ratioP1;P1;durP2;ratioP2;P2;SDS_P1;SDS_P2;PMS_P1;PMS_P2;Temp;Humidity;BMP_temperature;BMP_pressure;BME280_temperature;BME280_humidity;BME280_pressure;Samples;Min_cycle;Max_cycle;Signal;HPM_P1;HPM_P2
2022/09/20 00:00:49;;;;;;;5.35;1.60;;;11.30;99.90;;;;;;5096375;28;20032;-79
2022/09/20 00:03:16;;;;;;;3.03;1.50;;;11.30;99.90;;;;;;5095333;28;20043;-77
2022/09/20 00:05:44;;;;;;;3.30;1.70;;;11.30;99.90;;;;;;5105039;28;20039;-78
2022/09/20 00:08:15;;;;;;;4.55;1.95;;;11.30;99.90;;;;;;5098199;28;20083;-79
2022/09/20 00:10:42;;;;;;;3.63;1.73;;;11.30;99.90;;;;;;5121033;28;20056;-80
2022/09/20 00:13:10;;;;;;;6.72;2.28;;;11.30;99.90;;;;;;5088949;28;20020;-78
2022/09/20 00:15:41;;;;;;;9.50;2.50;;;11.20;99.90;;;;;;5097638;28;20028;-79
2022/09/20 00:18:07;;;;;;;4.15;2.03;;;11.20;99.90;;;;;;5100533;28;20045;-79
2022/09/20 00:20:33;;;;;;;3.25;1.73;;;11.20;99.90;;;;;;5091762;28;20107;-80
2022/09/20 00:22:58;;;;;;;5.68;2.15;;;11.20;99.90;;;;;;5117609;28;20024;-79
2022/09/20 00:25:24;;;;;;;6.45;2.40;;;11.20;99.90;;;;;;5101673;28;20495;-79
2022/09/20 00:27:50;;;;;;;5.47;2.38;;;11.10;99.90;;;;;;5102266;28;20058;-79
2022/09/20 00:30:16;;;;;;;4.50;1.92;;;11.10;99.90;;;;;;5081851;28;20050;-78
2022/09/20 00:32:41;;;;;;;6.63;2.45;;;11.10;99.90;;;;;;5091641;28;20063;-77
2022/09/20 00:35:12;;;;;;;6.85;2.17;;;11.10;99.90;;;;;;5097877;28;20031;-78
2022/09/20 00:37:40;;;;;;;6.78;2.30;;;11.00;99.90;;;;;;5097899;28;20028;-78
2022/09/20 00:40:19;;;;;;;7.05;2.28;;;11.10;99.90;;;;;;5096837;28;20024;-79
2022/09/20 00:42:46;;;;;;;3.75;1.70;;;11.00;99.90;;;;;;5088935;28;20040;-77
2022/09/20 00:45:28;;;;;;;3.92;1.92;;;11.00;99.90;;;;;;5096725;28;20024;-79
2022/09/20 00:48:08;;;;;;;4.45;1.77;;;11.00;99.90;;;;;;5095731;28;20020;-79
2022/09/20 00:50:44;;;;;;;12.68;2.70;;;11.00;99.90;;;;;;5086769;28;20056;-79
2022/09/20 00:53:25;;;;;;;5.10;1.67;;;11.00;99.90;;;;;;5087437;28;20032;-77
2022/09/20 00:55:56;;;;;;;5.47;1.77;;;11.00;99.90;;;;;;5097947;28;20027;-79
2022/09/20 00:58:25;;;;;;;3.10;1.75;;;10.90;99.90;;;;;;5099342;28;20034;-79
2022/09/20 01:00:55;;;;;;;2.92;1.80;;;10.90;99.90;;;;;;5104030;28;20038;-77
2022/09/20 01:03:24;;;;;;;6.28;2.25;;;10.90;99.90;;;;;;5118891;28;20051;-78
2022/09/20 01:05:51;;;;;;;4.68;1.98;;;10.90;99.90;;;;;;5096980;28;20024;-78
2022/09/20 01:08:17;;;;;;;4.35;2.00;;;10.90;99.90;;;;;;5114647;28;20028;-77
2022/09/20 01:10:43;;;;;;;4.28;2.00;;;10.90;99.90;;;;;;5111700;28;20072;-77
2022/09/20 01:13:10;;;;;;;3.55;1.80;;;10.90;99.90;;;;;;5103944;28;20050;-78
2022/09/20 01:15:38;;;;;;;4.05;1.88;;;10.90;99.90;;;;;;5107807;28;20038;-78
2022/09/20 01:18:06;;;;;;;4.32;2.00;;;10.80;99.90;;;;;;5105160;28;20032;-77
2022/09/20 01:20:38;;;;;;;3.95;1.80;;;10.80;99.90;;;;;;5106045;28;20004;-77
2022/09/20 01:23:28;;;;;;;4.65;1.90;;;10.80;99.90;;;;;;5105546;28;20016;-76
2022/09/20 01:26:22;;;;;;;3.90;1.92;;;10.80;99.90;;;;;;5106310;28;20048;-77
2022/09/20 01:28:52;;;;;;;4.78;1.92;;;10.80;99.90;;;;;;5097820;28;20024;-78
2022/09/20 01:31:27;;;;;;;5.97;2.75;;;10.80;99.90;;;;;;5093067;28;20159;-76
2022/09/20 01:34:02;;;;;;;8.98;2.28;;;10.80;99.90;;;;;;5093567;28;20032;-77
2022/09/20 01:36:47;;;;;;;3.05;2.00;;;10.80;99.90;;;;;;5095494;28;20028;-78
2022/09/20 01:39:28;;;;;;;8.15;2.25;;;10.80;99.90;;;;;;5093670;28;20032;-78
2022/09/20 01:42:01;;;;;;;9.45;2.10;;;10.80;99.90;;;;;;5099731;28;20075;-77
2022/09/20 01:45:08;;;;;;;7.90;1.85;;;10.80;99.90;;;;;;5096821;28;20024;-77
2022/09/20 01:47:48;;;;;;;8.13;1.92;;;10.80;99.90;;;;;;5054157;28;20049;-78
2022/09/20 01:50:34;;;;;;;3.15;2.08;;;10.80;99.90;;;;;;5089979;28;20401;-78
2022/09/20 01:53:27;;;;;;;2.88;2.05;;;10.80;99.90;;;;;;5104266;28;20020;-79
2022/09/20 01:56:07;;;;;;;3.47;1.83;;;10.70;99.90;;;;;;5101316;28;20035;-77
2022/09/20 01:58:48;;;;;;;3.90;1.80;;;10.70;99.90;;;;;;5099628;28;20441;-78
2022/09/20 02:01:17;;;;;;;5.40;1.85;;;10.80;99.90;;;;;;5092125;28;20050;-78
2022/09/20 02:04:20;;;;;;;3.03;1.70;;;10.80;99.90;;;;;;5099438;28;20032;-79
2022/09/20 02:06:48;;;;;;;2.20;1.70;;;10.80;99.90;;;;;;5100319;28;20399;-77
2022/09/20 02:09:48;;;;;;;4.28;1.80;;;10.80;99.90;;;;;;5093315;28;20459;-78
2022/09/20 02:12:31;;;;;;;5.88;1.70;;;10.90;99.90;;;;;;5091285;28;20039;-77
2022/09/20 02:15:23;;;;;;;2.78;1.60;;;10.90;99.90;;;;;;5101232;28;20039;-77
2022/09/20 02:18:20;;;;;;;6.93;1.60;;;11.00;99.90;;;;;;5098150;28;20067;-78
2022/09/20 02:20:49;;;;;;;5.43;2.00;;;11.00;99.90;;;;;;5106137;28;20040;-78
2022/09/20 02:24:15;;;;;;;5.78;1.58;;;11.00;99.90;;;;;;5106742;28;20031;-78
2022/09/20 02:26:49;;;;;;;2.75;1.48;;;10.90;99.90;;;;;;5080617;28;20040;-78
2022/09/20 02:29:52;;;;;;;6.63;1.88;;;10.90;99.90;;;;;;5058652;28;20040;-79
2022/09/20 02:32:17;;;;;;;4.38;2.08;;;10.80;99.90;;;;;;5089043;28;20029;-78
2022/09/20 02:35:17;;;;;;;2.70;1.90;;;10.90;99.90;;;;;;5102973;28;20027;-78
2022/09/20 02:38:17;;;;;;;3.67;2.28;;;10.80;99.90;;;;;;5105167;28;20031;-78
2022/09/20 02:40:45;;;;;;;3.45;1.90;;;10.80;99.90;;;;;;5101809;28;20032;-77
2022/09/20 02:43:43;;;;;;;11.45;1.90;;;10.80;99.90;;;;;;5110832;28;20024;-77
2022/09/20 02:46:34;;;;;;;3.25;1.70;;;10.80;99.90;;;;;;5083756;28;20037;-77
2022/09/20 02:49:10;;;;;;;4.30;1.90;;;10.80;99.90;;;;;;5113527;28;20480;-78
2022/09/20 02:51:41;;;;;;;2.88;1.75;;;10.80;99.90;;;;;;5098382;28;20023;-78
2022/09/20 02:54:26;;;;;;;5.35;1.80;;;10.80;99.90;;;;;;5115611;28;20024;-77
2022/09/20 02:57:25;;;;;;;6.53;2.00;;;10.80;99.90;;;;;;5106899;28;20381;-77
2022/09/20 03:00:19;;;;;;;3.95;1.50;;;10.80;99.90;;;;;;5096773;28;20277;-78
2022/09/20 03:02:51;;;;;;;3.65;1.55;;;10.80;99.90;;;;;;5099064;28;20020;-77
2022/09/20 03:05:29;;;;;;;4.13;1.70;;;10.90;99.90;;;;;;5103637;28;20412;-79
2022/09/20 03:08:15;;;;;;;2.92;1.52;;;10.90;99.90;;;;;;5102706;28;20024;-78
2022/09/20 03:10:50;;;;;;;2.38;1.52;;;10.90;99.90;;;;;;5100992;28;20039;-77
2022/09/20 03:13:40;;;;;;;2.92;1.70;;;10.90;99.90;;;;;;5095245;28;20024;-77
2022/09/20 03:16:24;;;;;;;3.65;1.90;;;10.80;99.90;;;;;;5098691;28;20036;-78
2022/09/20 03:19:17;;;;;;;3.78;1.65;;;10.80;99.90;;;;;;5083010;28;20052;-78
2022/09/20 03:22:07;;;;;;;9.45;1.77;;;10.80;99.90;;;;;;5114941;28;20472;-77
2022/09/20 03:25:03;;;;;;;3.67;1.50;;;10.80;99.90;;;;;;5102856;28;20450;-78
2022/09/20 03:27:37;;;;;;;2.63;1.67;;;10.70;99.90;;;;;;5103931;28;20054;-77
2022/09/20 03:30:25;;;;;;;2.55;1.20;;;10.80;99.90;;;;;;5098954;28;20058;-78
2022/09/20 03:33:03;;;;;;;3.67;1.65;;;10.80;99.90;;;;;;5102550;28;20024;-77
2022/09/20 03:35:48;;;;;;;3.75;1.30;;;10.80;99.90;;;;;;5103515;28;20088;-78
2022/09/20 03:38:22;;;;;;;4.13;1.80;;;10.80;99.90;;;;;;5105641;28;20036;-78
2022/09/20 03:41:22;;;;;;;3.38;1.48;;;10.70;99.90;;;;;;5117556;28;20036;-77
2022/09/20 03:43:56;;;;;;;6.60;1.98;;;10.70;99.90;;;;;;5103829;28;20020;-77
2022/09/20 03:46:41;;;;;;;3.28;1.77;;;10.70;99.90;;;;;;5101570;28;20027;-77
2022/09/20 03:49:29;;;;;;;2.63;1.60;;;10.60;99.90;;;;;;5118924;28;20032;-77
2022/09/20 03:52:28;;;;;;;5.85;2.00;;;10.60;99.90;;;;;;5104270;28;20709;-79
2022/09/20 03:55:09;;;;;;;3.45;1.90;;;10.50;99.90;;;;;;5073530;28;20070;-78
2022/09/20 03:57:51;;;;;;;5.50;2.30;;;10.50;99.90;;;;;;5104300;28;20471;-78
2022/09/20 04:00:23;;;;;;;6.97;1.90;;;10.50;99.90;;;;;;5097958;28;20099;-79
2022/09/20 04:03:10;;;;;;;3.92;1.90;;;10.60;99.90;;;;;;5095703;28;20055;-80
2022/09/20 04:06:09;;;;;;;3.40;2.00;;;10.70;99.90;;;;;;5096100;28;20030;-78
2022/09/20 04:09:07;;;;;;;3.22;1.98;;;10.80;99.90;;;;;;5095105;28;20036;-78
2022/09/20 04:12:00;;;;;;;3.67;1.98;;;10.80;99.90;;;;;;5094059;28;20048;-79
2022/09/20 04:14:33;;;;;;;2.10;1.33;;;10.90;99.90;;;;;;5095956;28;20419;-78
2022/09/20 04:17:12;;;;;;;4.25;1.52;;;10.90;99.90;;;;;;5097825;28;20043;-79
2022/09/20 04:19:48;;;;;;;2.83;1.55;;;11.00;99.90;;;;;;5099522;28;20020;-77
2022/09/20 04:22:15;;;;;;;1.95;1.20;;;11.00;99.90;;;;;;5101715;28;20027;-80
2022/09/20 04:25:04;;;;;;;4.93;1.70;;;11.00;99.90;;;;;;5100250;28;20020;-79
2022/09/20 04:27:40;;;;;;;3.80;1.70;;;11.00;99.90;;;;;;5098959;28;20032;-81
2022/09/20 04:30:17;;;;;;;7.18;1.73;;;11.00;99.90;;;;;;5093664;28;20020;-78
2022/09/20 04:33:00;;;;;;;4.63;1.90;;;11.00;99.90;;;;;;5096174;28;20024;-79
2022/09/20 04:38:35;;;;;;;6.32;1.88;;;11.00;99.90;;;;;;5121714;27;20032;-80
2022/09/20 04:41:48;;;;;;;7.82;1.60;;;11.00;99.90;;;;;;5095186;28;20032;-78
2022/09/20 04:44:29;;;;;;;2.97;1.95;;;11.00;99.90;;;;;;5098892;28;20032;-81
2022/09/20 04:47:32;;;;;;;3.90;2.00;;;11.00;99.90;;;;;;5115171;28;20091;-80
2022/09/20 04:50:17;;;;;;;3.78;2.10;;;11.00;99.90;;;;;;5115856;28;20519;-79
2022/09/20 04:53:05;;;;;;;4.72;2.22;;;11.10;99.90;;;;;;5098806;28;20016;-81
2022/09/20 04:55:45;;;;;;;4.38;2.35;;;11.10;99.90;;;;;;5097019;28;20032;-79
2022/09/20 04:58:32;;;;;;;2.95;1.75;;;11.20;99.90;;;;;;5097691;28;20505;-78
2022/09/20 05:01:23;;;;;;;2.97;1.90;;;11.20;99.90;;;;;;5087797;28;20020;-80
2022/09/20 05:04:23;;;;;;;3.65;2.08;;;11.30;99.90;;;;;;5096551;28;20046;-80
2022/09/20 05:06:51;;;;;;;3.40;1.40;;;11.30;99.90;;;;;;5095942;28;20076;-81
2022/09/20 05:09:29;;;;;;;4.63;1.73;;;11.30;99.90;;;;;;5097775;28;20020;-79
2022/09/20 05:12:19;;;;;;;2.40;1.50;;;11.40;99.90;;;;;;5097936;28;20032;-79
2022/09/20 05:15:09;;;;;;;4.28;1.70;;;11.40;99.90;;;;;;5098785;28;20028;-81
2022/09/20 05:18:00;;;;;;;5.60;1.95;;;11.40;99.90;;;;;;5103421;28;20761;-81
2022/09/20 05:20:45;;;;;;;4.38;1.42;;;11.40;99.90;;;;;;5106335;28;20055;-81
2022/09/20 05:23:35;;;;;;;5.88;1.83;;;11.40;99.90;;;;;;5106350;28;20032;-78
2022/09/20 05:26:49;;;;;;;4.85;1.85;;;11.50;99.90;;;;;;5102024;28;20024;-81
2022/09/20 05:29:37;;;;;;;1.33;1.10;;;11.50;99.90;;;;;;5036796;28;20076;-80
2022/09/20 05:32:17;;;;;;;1.50;1.10;;;11.50;99.90;;;;;;5049163;28;20055;-78
2022/09/20 05:35:01;;;;;;;4.05;1.75;;;11.60;99.90;;;;;;5087818;28;20102;-79
2022/09/20 05:37:45;;;;;;;3.70;1.40;;;11.60;99.90;;;;;;5106707;28;20024;-79
2022/09/20 05:40:21;;;;;;;3.83;1.30;;;11.60;99.90;;;;;;5110521;28;20061;-79
2022/09/20 05:43:10;;;;;;;2.10;0.90;;;11.70;99.90;;;;;;5110944;28;20016;-78
2022/09/20 05:46:03;;;;;;;2.78;1.05;;;11.70;99.90;;;;;;5111735;28;20031;-78
2022/09/20 05:48:56;;;;;;;7.28;1.20;;;11.60;99.90;;;;;;5125503;28;20024;-78
2022/09/20 05:51:46;;;;;;;2.38;1.42;;;11.70;99.90;;;;;;5174146;22;20035;-88
2022/09/20 05:54:46;;;;;;;2.05;1.10;;;11.70;99.90;;;;;;5120009;28;20019;-87
2022/09/20 05:57:30;;;;;;;6.45;1.38;;;11.70;99.90;;;;;;5095816;28;20032;-87
2022/09/20 06:00:18;;;;;;;2.27;1.20;;;11.80;99.90;;;;;;5115971;28;20359;-88
2022/09/20 06:03:18;;;;;;;3.85;1.42;;;11.80;99.90;;;;;;5103946;28;20055;-85
2022/09/20 06:06:29;;;;;;;5.45;1.90;;;11.80;99.90;;;;;;5108720;28;20062;-87
2022/09/20 06:09:22;;;;;;;4.55;1.58;;;11.80;99.90;;;;;;5110414;28;20047;-86
2022/09/20 06:12:15;;;;;;;1.65;1.55;;;11.80;99.90;;;;;;5130619;28;20394;-84
2022/09/20 06:15:00;;;;;;;4.28;1.65;;;11.80;99.90;;;;;;5148332;28;20015;-87
2022/09/20 06:17:35;;;;;;;7.05;1.85;;;11.80;99.90;;;;;;5133995;28;20471;-86
2022/09/20 06:20:20;;;;;;;8.23;1.88;;;11.80;99.90;;;;;;5133088;28;20094;-85
2022/09/20 06:22:50;;;;;;;2.93;1.47;;;11.80;99.90;;;;;;5133829;28;20027;-86
2022/09/20 06:25:41;;;;;;;3.72;1.90;;;11.80;99.90;;;;;;5135661;28;20056;-85
2022/09/20 06:28:13;;;;;;;4.78;1.63;;;11.80;99.90;;;;;;5135763;28;20075;-82
2022/09/20 06:30:51;;;;;;;3.05;1.92;;;11.80;99.90;;;;;;5118568;28;20054;-84
2022/09/20 06:33:26;;;;;;;5.22;1.77;;;11.80;99.90;;;;;;5114542;28;20051;-85
2022/09/20 06:42:09;;;;;;;3.25;1.90;;;12.10;99.90;;;;;;5115118;28;20021;-85
2022/09/20 06:44:40;;;;;;;6.32;1.52;;;12.30;99.90;;;;;;5115958;28;20039;-83
2022/09/20 06:47:13;;;;;;;8.63;1.60;;;12.40;99.90;;;;;;5114603;28;20047;-84
2022/09/20 06:49:43;;;;;;;3.05;1.50;;;12.50;99.90;;;;;;5109043;28;20027;-87
2022/09/20 06:52:14;;;;;;;4.55;2.00;;;12.60;99.90;;;;;;5142715;28;20023;-88
2022/09/20 06:54:45;;;;;;;4.90;2.22;;;12.80;99.90;;;;;;5133266;28;20149;-84
2022/09/20 06:57:15;;;;;;;6.03;1.67;;;12.90;99.90;;;;;;5134345;28;20020;-85
2022/09/20 06:59:40;;;;;;;2.50;1.60;;;12.90;99.90;;;;;;5132470;28;20023;-84
2022/09/20 07:02:07;;;;;;;5.38;1.95;;;13.10;99.90;;;;;;5114049;28;20023;-88
2022/09/20 07:04:33;;;;;;;2.95;1.80;;;13.20;99.90;;;;;;5115642;28;20023;-85
2022/09/20 07:07:01;;;;;;;10.93;2.78;;;13.30;99.90;;;;;;5129096;28;20046;-86
2022/09/20 07:09:27;;;;;;;2.35;1.48;;;13.40;99.90;;;;;;5135226;27;20019;-83
2022/09/20 07:11:54;;;;;;;6.45;1.40;;;13.50;99.90;;;;;;5138029;27;20023;-86
2022/09/20 07:14:19;;;;;;;3.97;1.30;;;13.70;99.90;;;;;;5138469;27;20058;-86
2022/09/20 07:16:45;;;;;;;2.30;1.35;;;13.60;99.90;;;;;;5118114;27;20023;-84
2022/09/20 07:19:11;;;;;;;3.15;1.50;;;13.50;99.90;;;;;;5115795;27;20036;-85
2022/09/20 07:21:37;;;;;;;2.28;1.50;;;13.60;99.90;;;;;;5135669;27;20019;-86
2022/09/20 07:24:03;;;;;;;3.63;1.40;;;13.60;99.90;;;;;;5136943;27;20019;-84
2022/09/20 07:26:29;;;;;;;4.85;1.73;;;13.70;99.90;;;;;;5129427;27;20023;-83
2022/09/20 07:28:56;;;;;;;2.15;1.38;;;13.80;99.90;;;;;;5130314;27;20429;-84
2022/09/20 07:31:24;;;;;;;3.92;1.48;;;13.90;99.90;;;;;;5128165;28;20024;-86
2022/09/20 07:33:50;;;;;;;6.57;1.48;;;13.90;99.90;;;;;;5118881;28;20027;-87
2022/09/20 07:36:17;;;;;;;4.30;1.25;;;14.00;99.90;;;;;;5138464;28;20033;-83
2022/09/20 07:38:47;;;;;;;3.40;1.42;;;14.10;99.90;;;;;;5138508;28;20038;-84
2022/09/20 07:41:13;;;;;;;2.00;1.10;;;14.20;99.90;;;;;;5121112;27;20035;-83
2022/09/20 07:43:39;;;;;;;2.65;1.45;;;14.10;99.90;;;;;;5102463;28;20115;-84
2022/09/20 07:46:05;;;;;;;5.45;1.40;;;14.00;99.90;;;;;;5136225;28;20032;-84
2022/09/20 07:48:34;;;;;;;1.90;1.30;;;14.00;99.90;;;;;;5102018;28;20028;-86
2022/09/20 07:51:02;;;;;;;2.42;1.40;;;14.00;99.90;;;;;;5136450;28;20037;-84
2022/09/20 07:53:29;;;;;;;3.40;1.20;;;13.80;99.90;;;;;;5133979;28;20012;-87
2022/09/20 07:56:07;;;;;;;6.53;1.95;;;13.50;99.90;;;;;;5131549;28;20058;-85
2022/09/20 07:58:34;;;;;;;2.78;1.65;;;13.40;99.90;;;;;;5124108;28;20023;-84
2022/09/20 08:01:04;;;;;;;3.97;1.50;;;13.30;99.90;;;;;;5127909;28;20082;-85
2022/09/20 08:03:31;;;;;;;2.58;1.40;;;13.30;99.90;;;;;;5130298;28;20489;-87
2022/09/20 08:06:09;;;;;;;4.18;1.20;;;13.30;99.90;;;;;;5140618;27;20111;-84
2022/09/20 08:08:37;;;;;;;4.97;1.50;;;13.40;99.90;;;;;;5147533;27;20076;-83
2022/09/20 08:11:09;;;;;;;4.30;2.03;;;13.50;99.90;;;;;;5145872;27;20070;-83
2022/09/20 08:13:36;;;;;;;5.57;1.90;;;13.50;99.90;;;;;;5118007;27;20019;-86
2022/09/20 08:16:04;;;;;;;6.30;1.85;;;13.50;99.90;;;;;;5119128;27;20027;-86
2022/09/20 08:18:31;;;;;;;9.55;2.65;;;13.50;99.90;;;;;;5114971;28;20031;-86
2022/09/20 08:21:05;;;;;;;5.07;1.88;;;13.50;99.90;;;;;;5126995;28;20027;-85
2022/09/20 08:23:39;;;;;;;;;;;13.50;99.90;;;;;;5109234;28;20102;-85
2022/09/20 08:26:07;;;;;;;4.15;1.48;;;13.50;99.90;;;;;;5118325;28;19915;-83
2022/09/20 08:28:33;;;;;;;4.85;1.80;;;13.60;99.90;;;;;;5121833;28;20086;-83
2022/09/20 08:31:01;;;;;;;6.53;2.25;;;13.70;99.90;;;;;;5139426;28;20028;-82
2022/09/20 08:33:27;;;;;;;3.90;1.70;;;14.00;99.90;;;;;;5098579;28;20039;-86
2022/09/20 08:35:53;;;;;;;6.72;1.77;;;14.30;99.90;;;;;;5117051;28;20039;-85
2022/09/20 08:38:19;;;;;;;3.97;2.00;;;14.60;99.90;;;;;;5136688;28;20014;-83
2022/09/20 08:40:47;;;;;;;7.10;1.60;;;15.10;99.90;;;;;;5120302;28;20015;-84
2022/09/20 08:43:13;;;;;;;7.30;2.17;;;15.50;99.90;;;;;;5136499;28;20024;-83
2022/09/20 08:45:39;;;;;;;6.32;1.52;;;15.80;99.90;;;;;;5113779;28;20039;-87
2022/09/20 08:48:12;;;;;;;4.57;1.80;;;15.90;99.90;;;;;;5127701;28;20023;-86
2022/09/20 08:50:38;;;;;;;8.95;2.25;;;15.90;99.90;;;;;;5130536;28;20038;-82
2022/09/20 08:53:04;;;;;;;5.28;1.80;;;15.90;99.90;;;;;;5149699;27;20050;-85
2022/09/20 08:55:31;;;;;;;9.10;1.85;;;15.60;99.90;;;;;;5150997;27;20035;-85
2022/09/20 08:57:59;;;;;;;4.43;1.50;;;15.40;99.90;;;;;;5131094;27;20034;-85
2022/09/20 09:00:31;;;;;;;5.40;1.55;;;15.40;99.90;;;;;;5149753;27;20023;-86
2022/09/20 09:03:03;;;;;;;3.30;1.80;;;15.50;99.90;;;;;;5153395;27;20030;-84
2022/09/20 09:05:32;;;;;;;4.30;1.20;;;16.20;99.90;;;;;;5150461;27;20027;-84
2022/09/20 09:08:20;;;;;;;4.65;1.23;;;17.20;99.90;;;;;;5152042;27;20034;-83
2022/09/20 09:10:56;;;;;;;2.13;1.15;;;17.70;99.90;;;;;;5131631;27;20474;-86
2022/09/20 09:13:51;;;;;;;4.82;1.08;;;17.50;99.90;;;;;;5134080;27;20081;-86
2022/09/20 09:16:19;;;;;;;6.00;1.10;;;17.30;99.90;;;;;;5154195;27;20039;-87
2022/09/20 09:18:48;;;;;;;4.13;1.30;;;17.40;99.90;;;;;;5148088;27;20026;-84
2022/09/20 09:21:25;;;;;;;2.88;0.80;;;18.50;99.90;;;;;;5132714;27;20114;-85
2022/09/20 09:24:12;;;;;;;3.10;1.15;;;19.90;99.90;;;;;;5150862;27;20029;-85
2022/09/20 09:26:40;;;;;;;8.13;1.25;;;20.90;99.70;;;;;;5114274;28;20087;-87
2022/09/20 09:29:16;;;;;;;2.95;1.42;;;21.00;98.50;;;;;;5130020;28;20016;-85
2022/09/20 09:31:44;;;;;;;3.45;1.08;;;20.30;98.30;;;;;;5114480;28;20034;-84
2022/09/20 09:34:30;;;;;;;15.90;8.05;;;19.30;99.40;;;;;;5144722;27;20023;-84
2022/09/20 09:36:57;;;;;;;3.83;0.93;;;18.00;99.90;;;;;;5129381;27;20274;-84
2022/09/20 09:39:30;;;;;;;2.45;0.98;;;17.00;99.90;;;;;;5146973;27;20122;-87
2022/09/20 09:41:59;;;;;;;3.50;0.73;;;16.60;99.90;;;;;;5127327;27;20023;-84
2022/09/20 09:44:32;;;;;;;5.63;1.02;;;16.40;99.90;;;;;;5134837;27;20023;-84
2022/09/20 09:46:58;;;;;;;2.78;0.95;;;16.90;99.90;;;;;;5153711;27;20031;-85
2022/09/20 09:49:35;;;;;;;5.22;1.00;;;19.10;99.90;;;;;;5153343;27;20010;-85
2022/09/20 09:52:17;;;;;;;2.08;0.60;;;21.40;98.40;;;;;;5152462;27;20031;-85
2022/09/20 09:54:49;;;;;;;1.52;0.68;;;23.40;93.60;;;;;;5151687;27;20038;-85
2022/09/20 09:57:39;;;;;;;3.45;0.73;;;24.80;90.50;;;;;;5151055;27;20091;-82
2022/09/20 10:00:13;;;;;;;2.38;0.73;;;25.60;85.00;;;;;;5140771;27;20056;-85
2022/09/20 10:02:48;;;;;;;2.20;0.75;;;24.40;85.10;;;;;;5128021;28;20066;-86
2022/09/20 10:05:22;;;;;;;5.13;0.68;;;23.20;86.70;;;;;;5129949;28;20076;-84
2022/09/20 10:07:53;;;;;;;1.65;0.68;;;23.30;86.10;;;;;;5111620;28;20050;-83
2022/09/20 10:10:58;;;;;;;0.98;0.77;;;22.40;87.20;;;;;;5131886;28;20019;-84
2022/09/20 10:13:34;;;;;;;1.00;0.50;;;23.40;86.30;;;;;;5132451;28;20111;-83
2022/09/20 10:16:37;;;;;;;1.67;0.57;;;24.20;83.50;;;;;;5114620;28;20020;-83
2022/09/20 10:19:36;;;;;;;4.32;1.05;;;25.50;81.20;;;;;;5128089;28;20023;-86
2022/09/20 10:22:20;;;;;;;1.45;0.80;;;26.70;79.60;;;;;;5109055;28;20019;-89
2022/09/20 10:24:55;;;;;;;4.93;1.08;;;25.60;78.40;;;;;;5092877;28;20035;-84
2022/09/20 10:27:35;;;;;;;4.05;2.53;;;23.90;81.60;;;;;;5093144;28;20062;-87
2022/09/20 10:30:14;;;;;;;3.88;0.75;;;22.30;84.20;;;;;;5092706;28;20079;-84
2022/09/20 10:33:06;;;;;;;1.13;0.60;;;20.80;89.50;;;;;;5092314;28;20267;-86
2022/09/20 10:35:54;;;;;;;2.15;0.50;;;19.90;92.00;;;;;;5120367;28;20032;-87
2022/09/20 10:38:28;;;;;;;1.70;0.63;;;19.30;92.30;;;;;;5129647;28;20043;-85
2022/09/20 10:44:18;;;;;;;5.50;0.80;;;18.80;93.60;;;;;;5136627;28;20027;-86
2022/09/20 10:47:01;;;;;;;3.05;0.88;;;19.90;92.80;;;;;;5147166;27;20038;-88
2022/09/20 10:49:32;;;;;;;5.88;1.40;;;20.20;91.70;;;;;;5153433;27;20046;-88
2022/09/20 10:52:05;;;;;;;6.03;1.25;;;20.20;91.80;;;;;;5135021;27;20054;-83
2022/09/20 10:54:45;;;;;;;4.07;0.88;;;21.40;91.40;;;;;;5155016;27;20038;-86
2022/09/20 10:57:44;;;;;;;2.33;0.90;;;23.50;88.40;;;;;;5139118;27;20034;-83
2022/09/20 11:00:24;;;;;;;2.17;1.00;;;24.50;83.50;;;;;;5115073;27;20080;-85
2022/09/20 11:03:17;;;;;;;3.88;0.75;;;26.20;82.60;;;;;;5147073;27;19999;-84
2022/09/20 11:05:59;;;;;;;2.15;0.80;;;28.00;77.70;;;;;;5131515;27;20023;-82
2022/09/20 11:08:33;;;;;;;1.58;0.77;;;26.90;76.40;;;;;;5118370;27;20055;-84
2022/09/20 11:11:04;;;;;;;1.65;0.65;;;25.90;76.20;;;;;;5127572;27;20035;-82
2022/09/20 11:13:49;;;;;;;1.40;0.70;;;24.50;77.60;;;;;;5138078;27;20034;-84
2022/09/20 11:16:38;;;;;;;2.72;0.70;;;25.00;78.10;;;;;;5125995;27;20036;-82
2022/09/20 11:19:32;;;;;;;0.65;0.50;;;26.80;75.70;;;;;;5143310;27;20042;-84
2022/09/20 11:22:26;;;;;;;2.50;0.50;;;26.70;76.40;;;;;;5143309;27;20096;-85
2022/09/20 11:25:20;;;;;;;0.98;0.45;;;25.30;80.20;;;;;;5137024;27;20027;-85
2022/09/20 11:27:57;;;;;;;1.48;0.50;;;23.20;84.90;;;;;;5137679;28;20023;-84
2022/09/20 11:30:23;;;;;;;1.50;0.65;;;21.40;88.50;;;;;;5139050;28;20041;-84
2022/09/20 11:33:19;;;;;;;3.90;0.73;;;20.10;90.80;;;;;;5125074;27;20015;-83
2022/09/20 11:35:50;;;;;;;2.00;0.57;;;19.10;93.40;;;;;;5149221;27;20098;-83
2022/09/20 11:38:23;;;;;;;0.55;0.55;;;18.20;94.10;;;;;;5151523;27;20023;-83
2022/09/20 11:41:05;;;;;;;1.25;0.60;;;17.50;96.30;;;;;;5127061;27;20071;-83
2022/09/20 11:43:32;;;;;;;2.17;0.68;;;17.10;98.80;;;;;;5146027;27;20037;-84
2022/09/20 11:46:05;;;;;;;1.67;0.90;;;16.80;99.90;;;;;;5121005;27;20023;-86
2022/09/20 11:48:42;;;;;;;1.83;0.65;;;16.40;99.90;;;;;;5139845;27;20032;-82
2022/09/20 11:51:13;;;;;;;1.30;0.52;;;16.10;99.90;;;;;;5155855;22;20042;-79
2022/09/20 11:53:51;;;;;;;2.45;0.80;;;16.00;99.90;;;;;;5144684;27;20100;-80
2022/09/20 11:56:23;;;;;;;4.50;1.20;;;16.00;99.90;;;;;;5144429;27;20027;-80
2022/09/20 11:58:58;;;;;;;2.55;1.10;;;16.10;99.90;;;;;;5145386;27;20037;-81
2022/09/20 12:01:35;;;;;;;1.52;0.90;;;17.20;99.90;;;;;;5150471;27;20035;-81
2022/09/20 12:04:21;;;;;;;4.95;0.90;;;18.40;99.90;;;;;;5137375;27;20027;-79
2022/09/20 12:07:19;;;;;;;3.10;1.10;;;18.60;99.90;;;;;;5130791;28;20035;-82
2022/09/20 12:10:07;;;;;;;2.03;0.60;;;18.20;99.90;;;;;;5105725;28;20043;-79
2022/09/20 12:12:36;;;;;;;0.80;0.60;;;17.00;99.90;;;;;;5109182;28;20479;-78
2022/09/20 12:15:27;;;;;;;1.77;0.50;;;15.90;99.90;;;;;;5129889;28;20062;-78
2022/09/20 12:17:56;;;;;;;1.75;0.60;;;15.40;99.90;;;;;;5125206;28;20024;-77
2022/09/20 12:20:34;;;;;;;1.92;1.00;;;14.90;99.90;;;;;;5121584;27;20033;-78
2022/09/20 12:23:37;;;;;;;5.32;0.80;;;14.80;99.90;;;;;;5154561;27;20023;-79
2022/09/20 12:26:21;;;;;;;1.63;0.70;;;14.70;99.90;;;;;;5154629;27;20045;-79
2022/09/20 12:28:52;;;;;;;3.67;0.80;;;14.80;99.90;;;;;;5153584;27;20084;-78
2022/09/20 12:31:20;;;;;;;2.22;1.33;;;14.90;99.90;;;;;;5151818;27;20038;-78
2022/09/20 12:33:58;;;;;;;3.63;1.30;;;15.00;99.90;;;;;;5153584;27;20019;-79
2022/09/20 12:36:26;;;;;;;1.83;1.05;;;14.80;99.90;;;;;;5153444;27;20054;-78
2022/09/20 12:39:16;;;;;;;3.25;0.80;;;15.20;99.90;;;;;;5132911;27;20070;-79
2022/09/20 12:42:06;;;;;;;0.80;0.68;;;15.80;99.90;;;;;;5108712;27;20039;-79
2022/09/20 12:44:37;;;;;;;3.65;1.10;;;15.80;99.90;;;;;;5116157;27;20175;-78
2022/09/20 12:47:09;;;;;;;2.45;0.88;;;15.40;99.90;;;;;;5142004;27;20091;-80
2022/09/20 12:52:52;;;;;;;2.80;1.48;;;15.10;99.90;;;;;;5135061;28;20021;-79
2022/09/20 12:55:48;;;;;;;5.68;1.30;;;15.20;99.90;;;;;;5116064;28;20082;-80
2022/09/20 12:58:14;;;;;;;3.28;1.35;;;15.40;99.90;;;;;;5136238;28;20035;-77
2022/09/20 13:00:56;;;;;;;4.35;1.30;;;15.20;99.90;;;;;;5134422;28;20139;-78
2022/09/20 13:03:35;;;;;;;5.38;1.33;;;14.90;99.90;;;;;;5110941;28;20027;-80
2022/09/20 13:06:10;;;;;;;1.98;1.20;;;14.50;99.90;;;;;;5103932;28;20032;-78
2022/09/20 13:09:00;;;;;;;2.42;1.30;;;14.40;99.90;;;;;;5119459;28;20027;-79
2022/09/20 13:11:53;;;;;;;3.53;1.38;;;14.50;99.90;;;;;;5126532;27;20096;-79
2022/09/20 13:14:29;;;;;;;3.33;1.23;;;14.50;99.90;;;;;;5102607;28;20069;-80
2022/09/20 13:17:12;;;;;;;1.60;1.02;;;14.40;99.90;;;;;;5122197;28;20027;-79
2022/09/20 13:19:45;;;;;;;2.78;1.02;;;14.40;99.90;;;;;;5124118;28;20028;-78
2022/09/20 13:22:14;;;;;;;2.67;1.20;;;14.80;99.90;;;;;;5126371;28;20075;-82
2022/09/20 13:24:43;;;;;;;4.13;1.40;;;15.10;99.90;;;;;;5109884;28;20036;-79
2022/09/20 13:27:17;;;;;;;2.20;1.15;;;15.10;99.90;;;;;;5108827;28;20092;-77
2022/09/20 13:29:44;;;;;;;5.60;1.67;;;15.00;99.90;;;;;;5129268;27;20031;-79
2022/09/20 13:32:26;;;;;;;3.35;0.98;;;14.90;99.90;;;;;;5113457;28;20220;-79
2022/09/20 13:35:13;;;;;;;2.85;1.45;;;14.60;99.90;;;;;;5111421;27;20023;-78
2022/09/20 13:37:50;;;;;;;5.40;1.48;;;14.30;99.90;;;;;;5145722;27;20032;-79
2022/09/20 13:40:37;;;;;;;3.97;1.10;;;14.00;99.90;;;;;;5136363;27;20076;-79
2022/09/20 13:43:27;;;;;;;5.03;1.25;;;14.00;99.90;;;;;;5120893;27;20031;-77
2022/09/20 13:45:58;;;;;;;2.70;1.40;;;13.90;99.90;;;;;;5121502;27;20027;-78
2022/09/20 13:48:28;;;;;;;4.38;0.90;;;13.90;99.90;;;;;;5139085;27;20038;-78
2022/09/20 13:50:55;;;;;;;2.22;1.13;;;13.80;99.90;;;;;;5139105;27;20035;-79
2022/09/20 13:53:25;;;;;;;2.25;1.20;;;13.70;99.90;;;;;;5120731;27;20023;-78
2022/09/20 13:55:53;;;;;;;1.98;1.05;;;13.60;99.90;;;;;;5139297;27;20027;-79
2022/09/20 13:58:27;;;;;;;3.30;0.80;;;13.50;99.90;;;;;;5140241;27;20019;-78
2022/09/20 14:00:56;;;;;;;6.68;1.45;;;13.40;99.90;;;;;;5141139;27;20047;-80